sensor_id;sensor_type;location;lat;lon;timestamp;pressure;altitude;pressure_sealevel;temperature;humidity
62402;BME280;48440;51.224;22.506;2024-03-02T00:01:05;98996.66;;;6.35;84.64
62402;BME280;48440;51.224;22.506;2024-03-02T00:03:30;98984.34;;;6.39;85.21
62402;BME280;48440;51.224;22.506;2024-03-02T00:05:56;98987.97;;;6.45;85.12
62402;BME280;48440;51.224;22.506;2024-03-02T00:08:25;98986.09;;;6.45;84.94
62402;BME280;48440;51.224;22.506;2024-03-02T00:10:58;98986.56;;;6.42;84.61
62402;BME280;48440;51.224;22.506;2024-03-02T00:13:24;98986.19;;;6.51;84.65
62402;BME280;48440;51.224;22.506;2024-03-02T00:15:54;98983.50;;;6.51;84.36
62402;BME280;48440;51.224;22.506;2024-03-02T00:18:25;98984.47;;;6.44;84.62
62402;BME280;48440;51.224;22.506;2024-03-02T00:20:54;98975.69;;;6.49;84.74
62402;BME280;48440;51.224;22.506;2024-03-02T00:23:22;98974.03;;;6.48;84.69
62402;BME280;48440;51.224;22.506;2024-03-02T00:25:49;98969.19;;;6.50;84.44
62402;BME280;48440;51.224;22.506;2024-03-02T00:28:22;98963.56;;;6.52;84.36
62402;BME280;48440;51.224;22.506;2024-03-02T00:30:59;98973.31;;;6.53;84.39
62402;BME280;48440;51.224;22.506;2024-03-02T00:33:44;98967.69;;;6.54;84.66
62402;BME280;48440;51.224;22.506;2024-03-02T00:36:13;98964.75;;;6.56;84.08
62402;BME280;48440;51.224;22.506;2024-03-02T00:38:50;98960.06;;;6.51;84.00
62402;BME280;48440;51.224;22.506;2024-03-02T00:46:27;98961.22;;;6.55;84.10
62402;BME280;48440;51.224;22.506;2024-03-02T00:48:57;98959.75;;;6.47;84.58
62402;BME280;48440;51.224;22.506;2024-03-02T00:51:24;98958.41;;;6.50;84.30
62402;BME280;48440;51.224;22.506;2024-03-02T00:53:52;98960.56;;;6.48;84.85
62402;BME280;48440;51.224;22.506;2024-03-02T00:56:19;98963.56;;;6.52;84.64
62402;BME280;48440;51.224;22.506;2024-03-02T00:58:44;98953.97;;;6.56;84.27
62402;BME280;48440;51.224;22.506;2024-03-02T01:01:10;98953.84;;;6.51;84.07
62402;BME280;48440;51.224;22.506;2024-03-02T01:03:35;98963.34;;;6.53;84.20
62402;BME280;48440;51.224;22.506;2024-03-02T01:06:02;98948.22;;;6.52;84.68
62402;BME280;48440;51.224;22.506;2024-03-02T01:08:28;98949.28;;;6.51;84.53
62402;BME280;48440;51.224;22.506;2024-03-02T01:10:54;98952.56;;;6.53;84.57
62402;BME280;48440;51.224;22.506;2024-03-02T01:13:23;98956.53;;;6.51;84.57
62402;BME280;48440;51.224;22.506;2024-03-02T01:15:50;98956.31;;;6.52;84.16
62402;BME280;48440;51.224;22.506;2024-03-02T01:18:15;98948.50;;;6.39;84.96
62402;BME280;48440;51.224;22.506;2024-03-02T01:20:41;98947.66;;;6.38;85.00
62402;BME280;48440;51.224;22.506;2024-03-02T01:23:06;98948.72;;;6.37;85.33
62402;BME280;48440;51.224;22.506;2024-03-02T01:25:32;98947.44;;;6.40;85.05
62402;BME280;48440;51.224;22.506;2024-03-02T01:27:57;98942.50;;;6.37;85.37
62402;BME280;48440;51.224;22.506;2024-03-02T01:30:23;98946.97;;;6.31;85.61
62402;BME280;48440;51.224;22.506;2024-03-02T01:32:48;98940.75;;;6.31;85.78
62402;BME280;48440;51.224;22.506;2024-03-02T01:35:14;98938.28;;;6.29;85.92
62402;BME280;48440;51.224;22.506;2024-03-02T01:37:43;98934.19;;;6.27;86.03
62402;BME280;48440;51.224;22.506;2024-03-02T01:40:09;98936.41;;;6.30;86.25
62402;BME280;48440;51.224;22.506;2024-03-02T01:42:38;98929.63;;;6.27;85.95
62402;BME280;48440;51.224;22.506;2024-03-02T01:45:08;98930.59;;;6.21;86.53
62402;BME280;48440;51.224;22.506;2024-03-02T01:47:34;98932.09;;;6.29;86.47
62402;BME280;48440;51.224;22.506;2024-03-02T01:50:00;98927.50;;;6.29;86.43
62402;BME280;48440;51.224;22.506;2024-03-02T01:52:29;98929.75;;;6.32;86.26
62402;BME280;48440;51.224;22.506;2024-03-02T01:54:55;98926.00;;;6.33;86.52
62402;BME280;48440;51.224;22.506;2024-03-02T01:57:20;98916.97;;;6.39;85.96
62402;BME280;48440;51.224;22.506;2024-03-02T01:59:46;98917.31;;;6.43;85.94
62402;BME280;48440;51.224;22.506;2024-03-02T02:02:14;98923.28;;;6.45;85.24
62402;BME280;48440;51.224;22.506;2024-03-02T02:04:39;98911.09;;;6.42;85.57
62402;BME280;48440;51.224;22.506;2024-03-02T02:07:05;98907.34;;;6.43;85.25
62402;BME280;48440;51.224;22.506;2024-03-02T02:09:31;98911.09;;;6.42;85.31
62402;BME280;48440;51.224;22.506;2024-03-02T02:11:57;98914.28;;;6.39;nan
62402;BME280;48440;51.224;22.506;2024-03-02T02:14:23;98921.53;;;6.39;85.13
62402;BME280;48440;51.224;22.506;2024-03-02T02:16:48;98920.00;;;6.43;85.33
62402;BME280;48440;51.224;22.506;2024-03-02T02:19:14;98910.75;;;6.39;85.63
62402;BME280;48440;51.224;22.506;2024-03-02T02:21:43;98908.16;;;6.44;85.55
62402;BME280;48440;51.224;22.506;2024-03-02T02:24:08;98907.25;;;6.38;85.27
62402;BME280;48440;51.224;22.506;2024-03-02T02:26:34;98903.13;;;6.36;85.73
62402;BME280;48440;51.224;22.506;2024-03-02T02:29:00;98902.56;;;6.34;85.99
62402;BME280;48440;51.224;22.506;2024-03-02T02:31:25;98899.97;;;6.39;85.68
62402;BME280;48440;51.224;22.506;2024-03-02T02:33:51;98897.28;;;6.39;86.04
62402;BME280;48440;51.224;22.506;2024-03-02T02:36:16;98895.41;;;6.39;85.81
62402;BME280;48440;51.224;22.506;2024-03-02T02:38:44;98897.50;;;6.37;85.40
62402;BME280;48440;51.224;22.506;2024-03-02T02:41:12;98897.97;;;6.34;86.27
62402;BME280;48440;51.224;22.506;2024-03-02T02:43:38;98891.53;;;6.35;86.20
62402;BME280;48440;51.224;22.506;2024-03-02T02:46:05;98894.22;;;6.35;85.94
62402;BME280;48440;51.224;22.506;2024-03-02T02:48:30;98892.94;;;6.38;86.25
62402;BME280;48440;51.224;22.506;2024-03-02T02:50:56;98900.91;;;6.33;85.93
62402;BME280;48440;51.224;22.506;2024-03-02T02:53:21;98897.53;;;6.26;86.44
62402;BME280;48440;51.224;22.506;2024-03-02T02:55:47;98894.69;;;6.32;86.48
62402;BME280;48440;51.224;22.506;2024-03-02T02:58:12;98894.22;;;6.35;85.96
62402;BME280;48440;51.224;22.506;2024-03-02T03:00:38;98900.91;;;6.33;86.22
62402;BME280;48440;51.224;22.506;2024-03-02T03:03:03;98897.50;;;6.37;85.96
62402;BME280;48440;51.224;22.506;2024-03-02T03:05:29;98896.09;;;6.35;86.34
62402;BME280;48440;51.224;22.506;2024-03-02T03:07:55;98884.16;;;6.31;86.56
62402;BME280;48440;51.224;22.506;2024-03-02T03:10:20;98897.75;;;6.24;86.00
62402;BME280;48440;51.224;22.506;2024-03-02T03:12:48;98895.66;;;6.26;86.28
62402;BME280;48440;51.224;22.506;2024-03-02T03:15:14;98888.84;;;6.24;87.11
62402;BME280;48440;51.224;22.506;2024-03-02T03:17:41;98891.31;;;6.25;86.29
62402;BME280;48440;51.224;22.506;2024-03-02T03:20:07;98883.22;;;6.25;86.51
62402;BME280;48440;51.224;22.506;2024-03-02T03:22:38;98876.53;;;6.28;86.28
62402;BME280;48440;51.224;22.506;2024-03-02T03:25:07;98883.09;;;6.32;86.34
62402;BME280;48440;51.224;22.506;2024-03-02T03:27:36;98872.56;;;6.30;86.06
62402;BME280;48440;51.224;22.506;2024-03-02T03:30:01;98876.66;;;6.33;86.59
62402;BME280;48440;51.224;22.506;2024-03-02T03:32:28;98882.53;;;6.30;86.31
62402;BME280;48440;51.224;22.506;2024-03-02T03:34:53;98884.63;;;6.28;86.59
62402;BME280;48440;51.224;22.506;2024-03-02T03:37:19;98877.59;;;6.27;86.18
62402;BME280;48440;51.224;22.506;2024-03-02T03:39:44;98871.50;;;6.31;86.42
62402;BME280;48440;51.224;22.506;2024-03-02T03:42:10;98883.69;;;6.34;85.87
62402;BME280;48440;51.224;22.506;2024-03-02T03:44:35;98877.94;;;6.30;86.19
62402;BME280;48440;51.224;22.506;2024-03-02T03:47:01;98878.31;;;6.34;86.21
62402;BME280;48440;51.224;22.506;2024-03-02T03:49:28;98868.81;;;6.31;86.21
62402;BME280;48440;51.224;22.506;2024-03-02T03:51:53;98879.25;;;6.28;86.35
62402;BME280;48440;51.224;22.506;2024-03-02T03:54:19;98873.16;;;6.32;86.37
62402;BME280;48440;51.224;22.506;2024-03-02T03:56:44;98868.13;;;6.24;86.77
62402;BME280;48440;51.224;22.506;2024-03-02T03:59:10;98866.50;;;6.23;86.91
62402;BME280;48440;51.224;22.506;2024-03-02T04:01:35;98870.56;;;6.26;86.85
62402;BME280;48440;51.224;22.506;2024-03-02T04:04:01;98864.13;;;6.27;86.67
62402;BME280;48440;51.224;22.506;2024-03-02T04:06:29;98865.19;;;6.26;86.88
62402;BME280;48440;51.224;22.506;2024-03-02T04:08:55;98878.81;;;6.19;86.89
62402;BME280;48440;51.224;22.506;2024-03-02T04:11:21;98875.75;;;6.16;87.97
62402;BME280;48440;51.224;22.506;2024-03-02T04:13:47;98875.06;;;6.20;87.10
62402;BME280;48440;51.224;22.506;2024-03-02T04:16:12;98866.97;;;6.20;86.94
62402;BME280;48440;51.224;22.506;2024-03-02T04:18:38;98856.78;;;6.22;87.33
62402;BME280;48440;51.224;22.506;2024-03-02T04:21:05;98860.84;;;6.25;86.99
62402;BME280;48440;51.224;22.506;2024-03-02T04:23:30;98869.44;;;6.22;87.63
62402;BME280;48440;51.224;22.506;2024-03-02T04:25:56;98868.03;;;6.19;87.57
62402;BME280;48440;51.224;22.506;2024-03-02T04:28:24;98855.13;;;6.21;87.38
62402;BME280;48440;51.224;22.506;2024-03-02T04:30:57;98858.41;;;6.23;87.21
62402;BME280;48440;51.224;22.506;2024-03-02T04:33:36;98851.94;;;6.24;87.53
62402;BME280;48440;51.224;22.506;2024-03-02T04:36:28;98853.59;;;6.25;87.42
62402;BME280;48440;51.224;22.506;2024-03-02T04:38:59;98850.88;;;6.25;87.32
62402;BME280;48440;51.224;22.506;2024-03-02T04:41:49;98861.59;;;6.20;87.36
62402;BME280;48440;51.224;22.506;2024-03-02T04:44:27;98861.22;;;6.17;87.95
62402;BME280;48440;51.224;22.506;2024-03-02T04:47:42;98858.19;;;6.13;88.53
62402;BME280;48440;51.224;22.506;2024-03-02T04:50:33;98856.66;;;6.17;88.03
62402;BME280;48440;51.224;22.506;2024-03-02T04:53:26;98852.69;;;6.20;88.36
62402;BME280;48440;51.224;22.506;2024-03-02T04:56:07;98860.19;;;6.18;88.40
62402;BME280;48440;51.224;22.506;2024-03-02T04:59:04;98861.81;;;6.19;88.70
62402;BME280;48440;51.224;22.506;2024-03-02T05:04:30;98870.25;;;6.22;88.00
62402;BME280;48440;51.224;22.506;2024-03-02T05:06:55;98871.19;;;6.16;88.14
62402;BME280;48440;51.224;22.506;2024-03-02T05:09:26;98883.25;;;6.13;88.60
62402;BME280;48440;51.224;22.506;2024-03-02T05:12:11;98886.06;;;6.07;89.68
62402;BME280;48440;51.224;22.506;2024-03-02T05:15:02;98888.88;;;6.12;88.56
62402;BME280;48440;51.224;22.506;2024-03-02T05:17:34;98890.16;;;6.09;88.79
62402;BME280;48440;51.224;22.506;2024-03-02T05:20:05;98893.69;;;6.10;88.99
62402;BME280;48440;51.224;22.506;2024-03-02T05:22:52;98889.13;;;6.10;89.41
62402;BME280;48440;51.224;22.506;2024-03-02T05:25:31;98887.81;;;6.13;89.10
62402;BME280;48440;51.224;22.506;2024-03-02T05:28:07;98896.84;;;6.19;88.79
62402;BME280;48440;51.224;22.506;2024-03-02T05:30:44;98883.13;;;6.20;88.74
62402;BME280;48440;51.224;22.506;2024-03-02T05:33:33;98885.09;;;6.25;88.20
62402;BME280;48440;51.224;22.506;2024-03-02T05:36:01;98893.78;;;6.27;88.46
62402;BME280;48440;51.224;22.506;2024-03-02T05:38:35;98883.47;;;6.24;87.91
62402;BME280;48440;51.224;22.506;2024-03-02T05:41:06;98893.56;;;6.17;88.64
62402;BME280;48440;51.224;22.506;2024-03-02T05:43:34;98897.31;;;6.16;88.71
62402;BME280;48440;51.224;22.506;2024-03-02T05:46:11;98894.97;;;6.19;88.89
62402;BME280;48440;51.224;22.506;2024-03-02T05:48:48;98896.25;;;6.17;88.79
62402;BME280;48440;51.224;22.506;2024-03-02T05:51:13;98898.13;;;6.16;88.54
62402;BME280;48440;51.224;22.506;2024-03-02T05:53:39;98908.31;;;6.14;88.84
62402;BME280;48440;51.224;22.506;2024-03-02T05:56:05;98905.16;;;6.17;88.94
62402;BME280;48440;51.224;22.506;2024-03-02T05:58:31;98905.88;;;6.12;89.17
62402;BME280;48440;51.224;22.506;2024-03-02T06:01:08;98908.44;;;6.07;89.53
62402;BME280;48440;51.224;22.506;2024-03-02T06:03:34;98913.59;;;6.09;89.55
62402;BME280;48440;51.224;22.506;2024-03-02T06:05:59;98917.47;;;6.13;89.22
62402;BME280;48440;51.224;22.506;2024-03-02T06:08:25;98916.16;;;6.16;88.86
62402;BME280;48440;51.224;22.506;2024-03-02T06:10:50;98919.34;;;6.12;89.21
62402;BME280;48440;51.224;22.506;2024-03-02T06:13:16;98920.75;;;6.15;88.52
62402;BME280;48440;51.224;22.506;2024-03-02T06:15:41;98922.84;;;6.13;88.60
62402;BME280;48440;51.224;22.506;2024-03-02T06:18:07;98919.69;;;6.16;88.37
62402;BME280;48440;51.224;22.506;2024-03-02T06:20:33;98927.66;;;6.11;88.68
62402;BME280;48440;51.224;22.506;2024-03-02T06:22:58;98931.97;;;6.12;88.54
62402;BME280;48440;51.224;22.506;2024-03-02T06:25:24;98930.94;;;6.13;88.73
62402;BME280;48440;51.224;22.506;2024-03-02T06:28:25;98926.94;;;6.16;88.54
62402;BME280;48440;51.224;22.506;2024-03-02T06:30:52;98927.31;;;6.19;88.18
62402;BME280;48440;51.224;22.506;2024-03-02T06:33:18;98922.72;;;6.20;88.06
62402;BME280;48440;51.224;22.506;2024-03-02T06:35:56;98923.88;;;6.24;87.42
62402;BME280;48440;51.224;22.506;2024-03-02T06:38:30;98926.56;;;6.24;87.24
62402;BME280;48440;51.224;22.506;2024-03-02T06:41:15;98924.59;;;6.19;87.46
62402;BME280;48440;51.224;22.506;2024-03-02T06:47:39;98927.66;;;6.23;87.01
62402;BME280;48440;51.224;22.506;2024-03-02T06:50:22;98928.22;;;6.25;86.48
62402;BME280;48440;51.224;22.506;2024-03-02T06:53:01;98930.09;;;6.24;86.60
62402;BME280;48440;51.224;22.506;2024-03-02T07:01:59;98936.88;;;6.27;86.68
62402;BME280;48440;51.224;22.506;2024-03-02T07:08:41;98937.81;;;6.32;86.79
62402;BME280;48440;51.224;22.506;2024-03-02T07:17:40;98942.88;;;6.29;86.35
62402;BME280;48440;51.224;22.506;2024-03-02T07:20:53;98951.06;;;6.34;85.90
62402;BME280;48440;51.224;22.506;2024-03-02T07:26:20;98952.00;;;6.28;85.78
62402;BME280;48440;51.224;22.506;2024-03-02T07:28:47;98950.13;;;6.28;85.72
62402;BME280;48440;51.224;22.506;2024-03-02T07:31:16;98953.63;;;6.29;85.41
62402;BME280;48440;51.224;22.506;2024-03-02T07:36:55;98954.22;;;6.31;84.78
62402;BME280;48440;51.224;22.506;2024-03-02T07:39:32;98954.94;;;6.26;84.98
62402;BME280;48440;51.224;22.506;2024-03-02T07:42:26;98953.75;;;6.34;84.65
62402;BME280;48440;51.224;22.506;2024-03-02T07:45:00;98958.44;;;6.38;84.80
62402;BME280;48440;51.224;22.506;2024-03-02T07:48:06;98964.91;;;6.37;84.40
62402;BME280;48440;51.224;22.506;2024-03-02T07:50:36;98967.00;;;6.35;83.76
62402;BME280;48440;51.224;22.506;2024-03-02T07:53:57;98962.78;;;6.28;84.48
62402;BME280;48440;51.224;22.506;2024-03-02T07:56:40;98956.09;;;6.30;84.03
62402;BME280;48440;51.224;22.506;2024-03-02T07:59:18;98958.69;;;6.37;84.22
62402;BME280;48440;51.224;22.506;2024-03-02T08:01:50;98950.72;;;6.42;83.82
62402;BME280;48440;51.224;22.506;2024-03-02T08:07:53;98959.38;;;6.44;84.01
62402;BME280;48440;51.224;22.506;2024-03-02T08:17:40;98962.09;;;6.44;82.88
62402;BME280;48440;51.224;22.506;2024-03-02T08:20:13;98968.75;;;6.30;83.90
62402;BME280;48440;51.224;22.506;2024-03-02T08:22:39;98958.69;;;6.37;84.21
62402;BME280;48440;51.224;22.506;2024-03-02T08:25:06;98959.75;;;6.36;83.74
62402;BME280;48440;51.224;22.506;2024-03-02T08:27:33;98969.22;;;6.38;84.39
62402;BME280;48440;51.224;22.506;2024-03-02T08:29:59;98966.31;;;6.40;83.95
62402;BME280;48440;51.224;22.506;2024-03-02T08:32:24;98960.22;;;6.44;83.89
62402;BME280;48440;51.224;22.506;2024-03-02T08:34:53;98957.50;;;6.44;83.71
62402;BME280;48440;51.224;22.506;2024-03-02T08:37:20;98958.41;;;6.50;83.68
62402;BME280;48440;51.224;22.506;2024-03-02T08:40:07;98956.91;;;6.54;83.56
62402;BME280;48440;51.224;22.506;2024-03-02T08:42:42;98953.38;;;6.54;83.56
62402;BME280;48440;51.224;22.506;2024-03-02T08:45:08;98956.66;;;6.56;83.23
62402;BME280;48440;51.224;22.506;2024-03-02T08:47:34;98967.69;;;6.54;83.23
62402;BME280;48440;51.224;22.506;2024-03-02T08:50:05;98963.94;;;6.55;83.20
62402;BME280;48440;51.224;22.506;2024-03-02T08:52:34;98959.94;;;6.58;83.08
62402;BME280;48440;51.224;22.506;2024-03-02T09:13:05;98969.84;;;6.80;82.57
62402;BME280;48440;51.224;22.506;2024-03-02T09:15:53;98976.41;;;6.85;82.13
62402;BME280;48440;51.224;22.506;2024-03-02T09:39:59;98954.19;;;7.06;81.19
62402;BME280;48440;51.224;22.506;2024-03-02T09:42:26;98946.78;;;7.13;81.57
62402;BME280;48440;51.224;22.506;2024-03-02T10:01:29;98962.09;;;7.53;80.14
62402;BME280;48440;51.224;22.506;2024-03-02T10:59:02;98963.25;;;8.24;76.62
62402;BME280;48440;51.224;22.506;2024-03-02T11:23:53;98965.38;;;8.55;75.28
62402;BME280;48440;51.224;22.506;2024-03-02T11:26:19;98965.47;;;8.43;75.47
62402;BME280;48440;51.224;22.506;2024-03-02T11:29:10;98959.72;;;8.40;76.51
62402;BME280;48440;51.224;22.506;2024-03-02T11:32:20;98951.63;;;8.40;76.43
62402;BME280;48440;51.224;22.506;2024-03-02T11:34:58;98955.47;;;8.44;76.68
62402;BME280;48440;51.224;22.506;2024-03-02T11:43:18;98943.97;;;8.54;76.58
62402;BME280;48440;51.224;22.506;2024-03-02T12:30:35;98941.09;;;8.82;76.57
62402;BME280;48440;51.224;22.506;2024-03-02T12:33:01;98938.13;;;8.83;76.29
62402;BME280;48440;51.224;22.506;2024-03-02T12:35:27;98938.41;;;8.82;76.29
62402;BME280;48440;51.224;22.506;2024-03-02T12:37:59;98942.16;;;8.81;76.10
62402;BME280;48440;51.224;22.506;2024-03-02T12:41:02;98941.34;;;8.80;76.17
62402;BME280;48440;51.224;22.506;2024-03-02T12:43:32;98943.25;;;8.80;76.11
62402;BME280;48440;51.224;22.506;2024-03-02T12:46:06;98942.16;;;8.81;76.49
62402;BME280;48440;51.224;22.506;2024-03-02T12:48:58;98939.75;;;8.84;76.33
62402;BME280;48440;51.224;22.506;2024-03-02T12:51:33;98941.34;;;8.80;76.48
62402;BME280;48440;51.224;22.506;2024-03-02T12:54:21;98938.94;;;8.84;76.03
62402;BME280;48440;51.224;22.506;2024-03-02T12:56:50;98940.28;;;8.81;76.35
62402;BME280;48440;51.224;22.506;2024-03-02T12:59:24;98927.03;;;8.85;76.24
62402;BME280;48440;51.224;22.506;2024-03-02T13:01:55;98924.31;;;8.80;76.16
62402;BME280;48440;51.224;22.506;2024-03-02T13:04:28;98927.81;;;8.80;76.37
62402;BME280;48440;51.224;22.506;2024-03-02T13:06:55;98923.72;;;8.78;76.64
62402;BME280;48440;51.224;22.506;2024-03-02T13:09:25;98926.19;;;8.79;76.14
62402;BME280;48440;51.224;22.506;2024-03-02T13:11:52;98936.75;;;8.81;76.72
62402;BME280;48440;51.224;22.506;2024-03-02T13:14:21;98925.41;;;8.84;76.52
62402;BME280;48440;51.224;22.506;2024-03-02T13:16:48;98927.59;;;8.87;76.51
62402;BME280;48440;51.224;22.506;2024-03-02T13:19:13;98922.19;;;8.87;76.70
62402;BME280;48440;51.224;22.506;2024-03-02T13:21:41;98922.16;;;8.82;76.41
62402;BME280;48440;51.224;22.506;2024-03-02T13:24:07;98921.59;;;8.80;76.44
62402;BME280;48440;51.224;22.506;2024-03-02T13:26:33;98922.91;;;8.77;76.47
62402;BME280;48440;51.224;22.506;2024-03-02T13:28:59;98915.88;;;8.76;76.50
62402;BME280;48440;51.224;22.506;2024-03-02T13:31:24;98919.63;;;8.75;76.64
62402;BME280;48440;51.224;22.506;2024-03-02T13:33:50;98911.78;;;8.74;76.50
62402;BME280;48440;51.224;22.506;2024-03-02T13:36:16;98920.00;;;8.62;76.57
62402;BME280;48440;51.224;22.506;2024-03-02T13:38:42;98924.84;;;8.60;76.95
62402;BME280;48440;51.224;22.506;2024-03-02T13:41:08;98923.59;;;8.68;76.66
62402;BME280;48440;51.224;22.506;2024-03-02T13:43:34;98923.59;;;8.68;76.58
62402;BME280;48440;51.224;22.506;2024-03-02T13:46:01;98923.03;;;8.66;76.69
62402;BME280;48440;51.224;22.506;2024-03-02T13:48:27;98924.97;;;8.70;76.61
62402;BME280;48440;51.224;22.506;2024-03-02T13:50:53;98923.66;;;8.73;76.50
62402;BME280;48440;51.224;22.506;2024-03-02T13:53:19;98928.25;;;8.72;76.61
62402;BME280;48440;51.224;22.506;2024-03-02T13:55:45;98928.00;;;8.74;76.33
62402;BME280;48440;51.224;22.506;2024-03-02T13:58:11;98916.38;;;8.73;76.56
62402;BME280;48440;51.224;22.506;2024-03-02T14:00:40;98921.22;;;8.71;76.61
62402;BME280;48440;51.224;22.506;2024-03-02T14:03:08;98920.13;;;8.72;76.59
62402;BME280;48440;51.224;22.506;2024-03-02T14:05:34;98912.03;;;8.72;76.91
62402;BME280;48440;51.224;22.506;2024-03-02T14:08:00;98923.09;;;8.71;76.36
62402;BME280;48440;51.224;22.506;2024-03-02T14:10:29;98928.50;;;8.71;76.71
62402;BME280;48440;51.224;22.506;2024-03-02T14:12:55;98924.66;;;8.67;76.92
62402;BME280;48440;51.224;22.506;2024-03-02T14:15:21;98921.13;;;8.66;76.68
62402;BME280;48440;51.224;22.506;2024-03-02T14:17:46;98919.50;;;8.65;77.01
62402;BME280;48440;51.224;22.506;2024-03-02T14:20:12;98921.06;;;8.61;77.17
62402;BME280;48440;51.224;22.506;2024-03-02T14:22:39;98921.88;;;8.62;77.32
62402;BME280;48440;51.224;22.506;2024-03-02T14:25:04;98920.81;;;8.63;77.15
62402;BME280;48440;51.224;22.506;2024-03-02T14:27:30;98922.38;;;8.59;77.57
62402;BME280;48440;51.224;22.506;2024-03-02T14:29:56;98918.63;;;8.60;77.37
62402;BME280;48440;51.224;22.506;2024-03-02T14:32:21;98927.53;;;8.60;77.81
62402;BME280;48440;51.224;22.506;2024-03-02T14:34:47;98928.38;;;8.61;77.52
62402;BME280;48440;51.224;22.506;2024-03-02T14:37:14;98933.78;;;8.61;77.53
62402;BME280;48440;51.224;22.506;2024-03-02T14:39:40;98924.56;;;8.57;77.38
62402;BME280;48440;51.224;22.506;2024-03-02T14:42:06;98919.69;;;8.59;77.13
62402;BME280;48440;51.224;22.506;2024-03-02T14:44:32;98919.75;;;8.64;77.09
62402;BME280;48440;51.224;22.506;2024-03-02T14:46:59;98925.16;;;8.64;76.83
62402;BME280;48440;51.224;22.506;2024-03-02T14:49:26;98919.69;;;8.59;77.07
62402;BME280;48440;51.224;22.506;2024-03-02T14:51:52;98922.13;;;8.60;76.99
62402;BME280;48440;51.224;22.506;2024-03-02T14:54:17;98926.22;;;8.63;76.86
62402;BME280;48440;51.224;22.506;2024-03-02T14:56:43;98921.88;;;8.62;76.93
62402;BME280;48440;51.224;22.506;2024-03-02T14:59:08;98914.59;;;8.62;76.60
62402;BME280;48440;51.224;22.506;2024-03-02T15:01:35;98915.09;;;8.59;76.98
62402;BME280;48440;51.224;22.506;2024-03-02T15:04:01;98925.09;;;8.59;76.87
62402;BME280;48440;51.224;22.506;2024-03-02T15:06:27;98925.09;;;8.59;76.93
62402;BME280;48440;51.224;22.506;2024-03-02T15:08:52;98921.31;;;8.60;77.45
62402;BME280;48440;51.224;22.506;2024-03-02T15:11:20;98923.44;;;8.58;77.30
62402;BME280;48440;51.224;22.506;2024-03-02T15:13:45;98925.63;;;8.56;77.25
62402;BME280;48440;51.224;22.506;2024-03-02T15:16:11;98913.97;;;8.55;77.08
62402;BME280;48440;51.224;22.506;2024-03-02T15:18:37;98922.91;;;8.56;77.61
62402;BME280;48440;51.224;22.506;2024-03-02T15:21:03;98923.16;;;8.54;77.46
62402;BME280;48440;51.224;22.506;2024-03-02T15:23:28;98922.34;;;8.54;77.27
62402;BME280;48440;51.224;22.506;2024-03-02T15:25:55;98926.13;;;8.53;77.76
62402;BME280;48440;51.224;22.506;2024-03-02T15:28:20;98925.28;;;8.52;77.43
62402;BME280;48440;51.224;22.506;2024-03-02T15:30:46;98921.78;;;8.52;77.22
62402;BME280;48440;51.224;22.506;2024-03-02T15:33:12;98922.03;;;8.50;77.24
62402;BME280;48440;51.224;22.506;2024-03-02T15:35:37;98929.31;;;8.49;77.18
62402;BME280;48440;51.224;22.506;2024-03-02T15:38:03;98929.81;;;8.46;77.01
62402;BME280;48440;51.224;22.506;2024-03-02T15:40:28;98928.75;;;8.47;77.46
62402;BME280;48440;51.224;22.506;2024-03-02T15:42:54;98925.78;;;8.49;77.46
62402;BME280;48440;51.224;22.506;2024-03-02T15:45:19;98931.19;;;8.49;77.68
62402;BME280;48440;51.224;22.506;2024-03-02T15:47:45;98932.28;;;8.48;77.80
62402;BME280;48440;51.224;22.506;2024-03-02T15:50:10;98926.03;;;8.47;77.94
62402;BME280;48440;51.224;22.506;2024-03-02T15:52:38;98929.50;;;8.43;77.70
62402;BME280;48440;51.224;22.506;2024-03-02T15:55:03;98925.72;;;8.44;77.42
62402;BME280;48440;51.224;22.506;2024-03-02T15:57:31;98927.34;;;8.45;77.83
62402;BME280;48440;51.224;22.506;2024-03-02T15:59:57;98927.59;;;8.43;77.80
62402;BME280;48440;51.224;22.506;2024-03-02T16:02:22;98932.13;;;8.38;77.93
62402;BME280;48440;51.224;22.506;2024-03-02T16:04:48;98926.72;;;8.38;78.32
62402;BME280;48440;51.224;22.506;2024-03-02T16:07:13;98915.91;;;8.38;77.66
62402;BME280;48440;51.224;22.506;2024-03-02T16:09:39;98917.53;;;8.39;77.95
62402;BME280;48440;51.224;22.506;2024-03-02T16:12:05;98921.31;;;8.38;77.98
62402;BME280;48440;51.224;22.506;2024-03-02T16:14:34;98918.84;;;8.36;77.89
62402;BME280;48440;51.224;22.506;2024-03-02T16:17:00;98929.41;;;8.38;77.97
62402;BME280;48440;51.224;22.506;2024-03-02T16:19:26;98925.31;;;8.35;78.18
62402;BME280;48440;51.224;22.506;2024-03-02T16:21:51;98920.72;;;8.36;78.14
62402;BME280;48440;51.224;22.506;2024-03-02T16:24:17;98923.19;;;8.37;78.30
62402;BME280;48440;51.224;22.506;2024-03-02T16:26:42;98930.97;;;8.34;78.01
62402;BME280;48440;51.224;22.506;2024-03-02T16:29:08;98932.59;;;8.35;78.08
62402;BME280;48440;51.224;22.506;2024-03-02T16:31:33;98930.16;;;8.33;77.84
62402;BME280;48440;51.224;22.506;2024-03-02T16:33:59;98940.16;;;8.33;78.22
62402;BME280;48440;51.224;22.506;2024-03-02T16:36:25;98934.75;;;8.33;78.30
62402;BME280;48440;51.224;22.506;2024-03-02T16:38:54;98934.50;;;8.34;78.12
62402;BME280;48440;51.224;22.506;2024-03-02T16:41:19;98939.09;;;8.34;78.31
62402;BME280;48440;51.224;22.506;2024-03-02T16:43:45;98939.91;;;8.34;78.13
62402;BME280;48440;51.224;22.506;2024-03-02T16:46:11;98933.69;;;8.34;77.89
62402;BME280;48440;51.224;22.506;2024-03-02T16:48:38;98937.19;;;8.34;77.84
62402;BME280;48440;51.224;22.506;2024-03-02T16:51:04;98939.91;;;8.34;77.79
62402;BME280;48440;51.224;22.506;2024-03-02T16:53:30;98935.56;;;8.33;78.04
62402;BME280;48440;51.224;22.506;2024-03-02T16:56:04;98939.31;;;8.32;77.79
62402;BME280;48440;51.224;22.506;2024-03-02T16:58:31;98932.84;;;8.33;77.71
62402;BME280;48440;51.224;22.506;2024-03-02T17:00:56;98934.75;;;8.33;77.68
62402;BME280;48440;51.224;22.506;2024-03-02T17:03:22;98935.56;;;8.33;77.76